Time;durP1;ratioP1;P1;durP2;ratioP2;P2;SDS_P1;SDS_P2;PMS_P1;PMS_P2;Temp;Humidity;BMP_temperature;BMP_pressure;BME280_temperature;BME280_humidity;BME280_pressure;Samples;Min_cycle;Max_cycle;Signal;HPM_P1;HPM_P2
2023/10/13 00:00:29;;;;;;;21.20;9.00;;;14.30;99.90;;;;;;6151988;23;20175;-87
2023/10/13 00:03:01;;;;;;;16.23;8.37;;;14.30;99.90;;;;;;6153161;23;20187;-88
2023/10/13 00:05:30;;;;;;;21.07;8.93;;;14.40;99.90;;;;;;6151243;23;20209;-88
2023/10/13 00:08:00;;;;;;;18.47;7.87;;;14.40;99.90;;;;;;6126667;23;20286;-87
2023/10/13 00:10:35;;;;;;;17.17;7.70;;;14.50;99.90;;;;;;6151695;23;20200;-88
2023/10/13 00:13:11;;;;;;;16.57;7.93;;;14.50;99.90;;;;;;6127348;23;20190;-88
2023/10/13 00:15:59;;;;;;;15.70;8.57;;;14.60;99.90;;;;;;6151639;23;20216;-88
2023/10/13 00:18:27;;;;;;;10.40;7.50;;;14.70;99.90;;;;;;6151916;23;20210;-87
2023/10/13 00:20:56;;;;;;;22.07;8.97;;;14.70;99.90;;;;;;6151507;23;20641;-87
2023/10/13 00:23:23;;;;;;;27.70;10.03;;;14.60;99.90;;;;;;6127509;23;20195;-88
2023/10/13 00:25:56;;;;;;;23.33;7.87;;;14.60;99.90;;;;;;6149822;23;20213;-87
2023/10/13 00:28:35;;;;;;;21.27;9.30;;;14.70;99.90;;;;;;6126685;23;20214;-88
2023/10/13 00:31:21;;;;;;;18.73;8.80;;;14.80;99.90;;;;;;6149839;23;20203;-87
2023/10/13 00:33:49;;;;;;;24.47;9.80;;;14.90;99.90;;;;;;6150162;23;20596;-88
2023/10/13 00:36:19;;;;;;;22.17;9.07;;;14.80;99.90;;;;;;6124869;23;20164;-87
2023/10/13 00:38:48;;;;;;;27.77;10.73;;;14.90;99.90;;;;;;6149596;23;20199;-87
2023/10/13 00:41:16;;;;;;;23.90;9.13;;;14.90;99.90;;;;;;6125594;23;20191;-88
2023/10/13 00:44:07;;;;;;;21.20;7.93;;;15.00;99.90;;;;;;6125434;23;20226;-88
2023/10/13 00:46:35;;;;;;;20.77;7.87;;;15.00;99.90;;;;;;6149976;23;20199;-88
2023/10/13 00:49:08;;;;;;;13.47;7.83;;;14.90;99.90;;;;;;6149490;23;20194;-88
2023/10/13 00:51:34;;;;;;;25.47;10.00;;;14.90;99.90;;;;;;6151449;23;20175;-88
2023/10/13 00:54:07;;;;;;;22.20;10.37;;;15.00;99.90;;;;;;6149851;23;20242;-87
2023/10/13 00:56:34;;;;;;;18.97;9.33;;;15.10;99.90;;;;;;6149737;23;20195;-88
2023/10/13 00:59:02;;;;;;;20.87;9.57;;;15.00;99.90;;;;;;6149233;23;20330;-87
2023/10/13 01:01:32;;;;;;;26.27;12.00;;;15.20;99.90;;;;;;6125422;23;20199;-88
2023/10/13 01:04:03;;;;;;;20.13;10.77;;;15.20;99.90;;;;;;6125687;23;20619;-87
2023/10/13 01:06:29;;;;;;;17.90;8.03;;;15.40;99.90;;;;;;6125687;23;20167;-87
2023/10/13 01:09:17;;;;;;;18.63;8.47;;;15.50;99.90;;;;;;6150275;23;20155;-87
2023/10/13 01:11:52;;;;;;;16.80;8.27;;;15.60;99.90;;;;;;6149158;23;20258;-88
2023/10/13 01:14:23;;;;;;;16.83;7.80;;;15.70;99.90;;;;;;6125263;23;20290;-87
2023/10/13 01:16:52;;;;;;;23.43;8.63;;;15.80;99.90;;;;;;6125426;23;20199;-87
2023/10/13 01:19:19;;;;;;;21.67;10.23;;;15.80;99.90;;;;;;6125249;23;20208;-88
2023/10/13 01:21:48;;;;;;;15.50;8.97;;;16.00;99.90;;;;;;6124913;23;20249;-88
2023/10/13 01:24:17;;;;;;;18.03;8.93;;;16.00;99.90;;;;;;6125316;23;20164;-88
2023/10/13 01:26:43;;;;;;;15.30;8.07;;;16.00;99.90;;;;;;6148946;23;20203;-88
2023/10/13 01:29:12;;;;;;;22.20;8.13;;;16.20;99.90;;;;;;6149018;23;20656;-87
2023/10/13 01:31:45;;;;;;;13.10;7.87;;;16.30;99.90;;;;;;6150708;23;21008;-88
2023/10/13 01:34:22;;;;;;;17.23;6.93;;;16.40;99.90;;;;;;6148902;23;20206;-87
2023/10/13 01:36:52;;;;;;;13.30;6.80;;;16.20;99.90;;;;;;6149234;23;20158;-87
2023/10/13 01:39:26;;;;;;;17.83;7.23;;;16.40;99.90;;;;;;6150230;23;20155;-88
2023/10/13 01:41:56;;;;;;;13.27;7.43;;;16.40;99.90;;;;;;6148944;23;20249;-88
2023/10/13 01:44:30;;;;;;;14.77;8.43;;;16.50;99.90;;;;;;6148896;23;20278;-88
2023/10/13 01:47:06;;;;;;;13.60;7.53;;;16.50;99.90;;;;;;6149364;23;20199;-88
2023/10/13 01:50:13;;;;;;;7.33;5.30;;;16.50;99.90;;;;;;6126197;23;20218;-88
2023/10/13 01:52:27;;;;;;;11.50;5.80;;;16.60;99.90;;;;;;6148050;23;20253;-88
2023/10/13 01:54:54;;;;;;;14.53;6.60;;;16.60;99.90;;;;;;6149445;23;20696;-87
2023/10/13 01:57:23;;;;;;;8.63;5.10;;;16.60;99.90;;;;;;6125513;23;20173;-87
2023/10/13 01:59:49;;;;;;;12.87;5.60;;;16.70;99.90;;;;;;6124868;23;20203;-89
2023/10/13 02:02:28;;;;;;;8.63;6.00;;;16.60;99.90;;;;;;6124217;23;20222;-88
2023/10/13 02:05:00;;;;;;;17.00;5.57;;;16.70;99.90;;;;;;6126927;23;20289;-88
2023/10/13 02:07:29;;;;;;;12.47;5.27;;;16.70;99.90;;;;;;6125549;23;20203;-88
2023/10/13 02:09:58;;;;;;;12.70;4.80;;;16.80;99.90;;;;;;6125119;23;20237;-88
2023/10/13 02:12:42;;;;;;;5.97;3.73;;;16.70;99.90;;;;;;6125206;23;20187;-88
2023/10/13 02:15:12;;;;;;;6.53;4.47;;;16.60;99.90;;;;;;6128040;23;20233;-89
2023/10/13 02:17:41;;;;;;;6.37;3.67;;;16.70;99.90;;;;;;6148546;23;20196;-89
2023/10/13 02:20:14;;;;;;;7.27;3.70;;;16.70;99.90;;;;;;6148700;23;20512;-89
2023/10/13 02:22:48;;;;;;;4.80;3.60;;;16.60;99.90;;;;;;6126892;23;20253;-89
2023/10/13 02:25:17;;;;;;;9.47;3.60;;;16.70;99.90;;;;;;6148598;23;20201;-89
2023/10/13 02:27:43;;;;;;;9.23;3.10;;;16.70;99.90;;;;;;6124765;23;20522;-89
2023/10/13 02:30:14;;;;;;;10.97;2.43;;;16.70;99.90;;;;;;6124796;23;20164;-88
2023/10/13 02:32:43;;;;;;;5.80;2.70;;;16.70;99.90;;;;;;6124894;23;20211;-89
2023/10/13 02:35:15;;;;;;;4.57;2.83;;;16.60;99.90;;;;;;6148401;23;20662;-89
2023/10/13 02:37:44;;;;;;;5.40;3.30;;;16.70;99.90;;;;;;6125599;23;20535;-88
2023/10/13 02:40:11;;;;;;;3.70;2.33;;;16.70;99.90;;;;;;6148385;23;20287;-89
2023/10/13 02:42:38;;;;;;;9.27;2.93;;;16.70;99.90;;;;;;6124206;23;20163;-88
2023/10/13 02:45:05;;;;;;;8.27;3.83;;;16.60;99.90;;;;;;6149387;23;20163;-89
2023/10/13 02:47:31;;;;;;;8.07;2.23;;;16.70;99.90;;;;;;6124307;23;20202;-88
2023/10/13 02:50:12;;;;;;;10.00;3.30;;;16.60;99.90;;;;;;6124123;23;20233;-88
2023/10/13 02:52:41;;;;;;;5.40;3.37;;;16.70;99.90;;;;;;6127133;23;20206;-89
2023/10/13 02:55:13;;;;;;;5.83;2.93;;;16.70;99.90;;;;;;6148367;23;20195;-89
2023/10/13 02:57:40;;;;;;;4.33;3.03;;;16.70;99.90;;;;;;6149071;23;20163;-88
2023/10/13 03:00:12;;;;;;;6.37;4.10;;;16.70;99.90;;;;;;6149241;23;20160;-89
2023/10/13 03:02:44;;;;;;;4.13;3.17;;;16.70;99.90;;;;;;6148898;23;20196;-89
2023/10/13 03:05:13;;;;;;;5.37;3.23;;;16.70;99.90;;;;;;6125076;23;20213;-88
2023/10/13 03:07:43;;;;;;;6.90;3.37;;;16.80;99.90;;;;;;6124868;23;20283;-89
2023/10/13 03:10:14;;;;;;;8.10;4.70;;;16.80;99.90;;;;;;6124684;23;20195;-89
2023/10/13 03:12:41;;;;;;;7.87;4.53;;;16.80;99.90;;;;;;6147918;23;20274;-89
2023/10/13 03:15:14;;;;;;;11.17;4.20;;;16.80;99.90;;;;;;6149009;23;20159;-89
2023/10/13 03:17:43;;;;;;;6.70;4.67;;;16.80;99.90;;;;;;6125514;23;20636;-89
2023/10/13 03:20:14;;;;;;;5.13;3.83;;;16.70;99.90;;;;;;6148387;23;20711;-89
2023/10/13 03:22:40;;;;;;;8.03;4.93;;;16.80;99.90;;;;;;6124387;23;20199;-89
2023/10/13 03:25:08;;;;;;;12.20;4.73;;;16.70;99.90;;;;;;6148725;23;20629;-89
2023/10/13 03:28:00;;;;;;;9.63;5.10;;;16.80;99.90;;;;;;6149093;23;20155;-90
2023/10/13 03:30:35;;;;;;;7.07;4.43;;;16.80;99.90;;;;;;6149052;23;20640;-89
2023/10/13 03:33:06;;;;;;;10.47;4.87;;;16.90;99.90;;;;;;6148805;23;20183;-90
2023/10/13 03:35:41;;;;;;;9.30;4.87;;;16.70;99.90;;;;;;6148371;23;20195;-89
2023/10/13 03:38:19;;;;;;;6.43;4.07;;;17.00;99.90;;;;;;6125542;23;20704;-89
2023/10/13 03:40:56;;;;;;;9.20;4.50;;;16.80;99.90;;;;;;6125964;23;20692;-89
2023/10/13 03:43:22;;;;;;;11.80;6.07;;;16.70;99.90;;;;;;6148147;23;20199;-89
2023/10/13 03:46:00;;;;;;;9.50;6.47;;;16.80;99.90;;;;;;6148820;23;20159;-90
2023/10/13 03:51:06;;;;;;;10.30;4.67;;;17.00;99.90;;;;;;6123617;23;20535;-90
2023/10/13 03:53:54;;;;;;;12.77;5.47;;;16.90;99.90;;;;;;6148082;23;20191;-89
2023/10/13 03:56:29;;;;;;;11.93;5.90;;;17.00;99.90;;;;;;6125698;23;20577;-89
2023/10/13 03:59:06;;;;;;;15.43;7.03;;;17.00;99.90;;;;;;6124067;23;20659;-87
2023/10/13 04:04:12;;;;;;;13.33;6.50;;;17.10;99.90;;;;;;6150376;23;20230;-89
2023/10/13 04:14:03;;;;;;;10.70;7.80;;;17.00;99.90;;;;;;6151349;23;20219;-89
2023/10/13 04:17:27;;;;;;;11.17;5.60;;;17.00;99.90;;;;;;6149993;23;20194;-89
2023/10/13 04:30:59;;;;;;;11.03;6.67;;;17.00;99.90;;;;;;6150352;23;20255;-90
2023/10/13 04:38:59;;;;;;;10.70;4.70;;;17.00;99.90;;;;;;6151114;23;20507;-91
2023/10/13 05:50:04;;;;;;;1.90;1.77;;;17.00;99.90;;;;;;6150930;23;20636;-91
2023/10/13 06:31:01;;;;;;;2.53;1.63;;;16.70;99.90;;;;;;6127905;23;20218;-91
2023/10/13 06:33:33;;;;;;;2.87;1.67;;;16.70;99.90;;;;;;6125582;23;20479;-93
2023/10/13 06:36:01;;;;;;;3.27;2.27;;;16.80;99.90;;;;;;6126348;23;20176;-91
2023/10/13 06:38:35;;;;;;;7.17;1.43;;;16.90;99.90;;;;;;6148488;23;20195;-89
2023/10/13 06:41:05;;;;;;;2.50;1.67;;;16.90;99.90;;;;;;6148324;23;20729;-91
2023/10/13 06:43:43;;;;;;;2.23;1.30;;;17.00;99.90;;;;;;6124329;23;20199;-87
2023/10/13 06:46:23;;;;;;;6.23;1.27;;;16.90;99.90;;;;;;6148706;23;20662;-91
2023/10/13 06:48:53;;;;;;;2.57;1.93;;;16.90;99.90;;;;;;6148933;23;20206;-90
2023/10/13 06:51:25;;;;;;;8.30;2.40;;;16.90;99.90;;;;;;6149465;23;20186;-90
2023/10/13 06:53:56;;;;;;;6.50;2.43;;;16.90;99.90;;;;;;6148341;23;20278;-90
2023/10/13 06:56:26;;;;;;;9.70;3.07;;;16.80;99.90;;;;;;6125002;23;20199;-90
2023/10/13 06:58:59;;;;;;;3.27;2.53;;;16.90;99.90;;;;;;6148282;23;20270;-91
2023/10/13 07:01:28;;;;;;;6.97;3.13;;;16.90;99.90;;;;;;6148580;23;20262;-93
2023/10/13 07:03:55;;;;;;;11.13;2.40;;;16.90;99.90;;;;;;6124329;23;20198;-91
2023/10/13 07:06:22;;;;;;;4.37;2.80;;;16.90;99.90;;;;;;6148941;23;20171;-92
2023/10/13 07:08:55;;;;;;;3.60;1.53;;;17.00;99.90;;;;;;6124319;23;20652;-91
2023/10/13 07:11:34;;;;;;;8.13;2.60;;;17.10;99.90;;;;;;6148380;23;20226;-88
2023/10/13 07:14:10;;;;;;;2.80;1.10;;;17.10;99.90;;;;;;6125532;23;20195;-94
2023/10/13 07:16:58;;;;;;;5.07;1.47;;;17.20;99.90;;;;;;6151025;23;20655;-94
2023/10/13 07:19:27;;;;;;;4.33;1.43;;;17.20;99.90;;;;;;6146271;23;20980;-93
2023/10/13 07:21:58;;;;;;;4.30;1.67;;;17.20;99.90;;;;;;6147067;23;20604;-92
2023/10/13 07:24:27;;;;;;;6.53;1.70;;;17.30;99.90;;;;;;6147358;23;20148;-93
2023/10/13 07:27:02;;;;;;;4.07;1.27;;;17.20;99.90;;;;;;6146577;23;20206;-93
2023/10/13 07:29:28;;;;;;;8.03;1.60;;;17.20;99.90;;;;;;6124878;23;20230;-94
2023/10/13 07:31:54;;;;;;;3.50;2.20;;;17.20;99.90;;;;;;6122930;23;20218;-91
2023/10/13 07:34:39;;;;;;;5.07;1.60;;;17.10;99.90;;;;;;6122767;23;20218;-93
2023/10/13 07:37:12;;;;;;;4.33;1.83;;;17.10;99.90;;;;;;6128360;23;20191;-93
2023/10/13 07:39:40;;;;;;;5.23;2.20;;;17.00;99.90;;;;;;6150183;23;20477;-91
2023/10/13 07:42:08;;;;;;;4.60;2.10;;;17.00;99.90;;;;;;6125057;23;20619;-93
2023/10/13 07:44:45;;;;;;;5.57;2.00;;;17.00;99.90;;;;;;6123784;23;20198;-92
2023/10/13 07:47:11;;;;;;;9.23;3.10;;;16.90;99.90;;;;;;6126536;23;20640;-92
2023/10/13 07:49:39;;;;;;;2.97;1.93;;;16.90;99.90;;;;;;6148923;23;20258;-92
2023/10/13 07:54:49;;;;;;;5.87;2.97;;;16.90;99.90;;;;;;6149879;23;20678;-93
2023/10/13 07:57:17;;;;;;;6.43;3.23;;;16.90;99.90;;;;;;6126529;23;20202;-92
2023/10/13 08:00:04;;;;;;;4.33;2.20;;;16.90;99.90;;;;;;6149283;23;20199;-93
2023/10/13 08:05:15;;;;;;;15.83;3.00;;;17.00;99.90;;;;;;6128767;23;20207;-91
2023/10/13 08:07:42;;;;;;;8.70;2.80;;;17.00;99.90;;;;;;6125686;23;20205;-92
2023/10/13 08:10:10;;;;;;;4.33;2.30;;;17.00;99.90;;;;;;6125018;23;20979;-90
2023/10/13 08:12:37;;;;;;;2.93;2.33;;;17.10;99.90;;;;;;6123921;23;20190;-89
2023/10/13 08:15:21;;;;;;;5.37;2.87;;;17.10;99.90;;;;;;6124606;23;20248;-92
2023/10/13 08:17:47;;;;;;;8.17;3.00;;;17.10;99.90;;;;;;6128401;23;20199;-93
2023/10/13 08:20:16;;;;;;;9.30;2.20;;;17.10;99.90;;;;;;6124135;23;20195;-90
2023/10/13 08:22:47;;;;;;;6.07;2.23;;;17.20;99.90;;;;;;6123641;23;20200;-91
2023/10/13 08:26:13;;;;;;;6.93;2.97;;;17.20;99.90;;;;;;6149426;23;20822;-91
2023/10/13 08:30:53;;;;;;;11.80;2.30;;;17.30;99.90;;;;;;6128768;23;20158;-92
2023/10/13 08:33:23;;;;;;;7.57;2.53;;;17.30;99.90;;;;;;6124211;23;20478;-91
2023/10/13 08:35:57;;;;;;;3.60;2.60;;;17.40;99.90;;;;;;6149447;23;20199;-91
2023/10/13 08:38:29;;;;;;;8.00;2.80;;;17.50;99.90;;;;;;6126428;23;20731;-90
2023/10/13 08:43:45;;;;;;;2.27;2.07;;;17.50;99.90;;;;;;6149752;23;20231;-91
2023/10/13 08:46:24;;;;;;;9.17;4.00;;;17.60;99.90;;;;;;6125505;23;20201;-90
2023/10/13 08:49:04;;;;;;;3.77;1.87;;;17.70;99.90;;;;;;6127268;23;20152;-90
2023/10/13 08:51:43;;;;;;;6.03;3.43;;;17.80;99.90;;;;;;6150047;23;20175;-92
2023/10/13 08:54:33;;;;;;;3.17;2.27;;;17.80;99.90;;;;;;6147892;23;20372;-94
2023/10/13 08:57:19;;;;;;;2.93;1.77;;;18.00;99.90;;;;;;6127391;23;20199;-91
2023/10/13 08:59:55;;;;;;;6.93;3.33;;;17.90;99.90;;;;;;6117713;23;20194;-90
2023/10/13 09:02:59;;;;;;;2.93;2.47;;;18.10;99.90;;;;;;6147597;23;20195;-89
2023/10/13 09:05:41;;;;;;;5.93;3.07;;;18.20;99.90;;;;;;6148979;23;20203;-90
2023/10/13 09:07:56;;;;;;;3.87;2.87;;;18.30;99.90;;;;;;6148446;23;20206;-89
2023/10/13 09:10:34;;;;;;;4.23;3.90;;;18.40;99.90;;;;;;6123935;23;20195;-89
2023/10/13 09:13:03;;;;;;;3.33;3.10;;;18.50;99.90;;;;;;6124581;23;20183;-90
2023/10/13 09:18:41;;;;;;;5.03;4.53;;;18.70;99.90;;;;;;6133389;23;20193;-89
2023/10/13 09:24:10;;;;;;;7.93;3.60;;;19.00;99.90;;;;;;6126371;23;20199;-91
2023/10/13 09:26:36;;;;;;;4.57;3.90;;;19.20;99.90;;;;;;6114765;23;20225;-91
2023/10/13 09:29:07;;;;;;;4.30;3.10;;;19.40;99.90;;;;;;6124162;23;20712;-91
2023/10/13 09:31:32;;;;;;;3.47;3.10;;;19.40;99.90;;;;;;6124375;23;20274;-94
2023/10/13 09:33:58;;;;;;;5.93;3.40;;;19.50;99.90;;;;;;6123830;23;20202;-90
2023/10/13 09:36:25;;;;;;;6.97;4.03;;;19.60;99.90;;;;;;6124842;23;20790;-90
2023/10/13 09:39:52;;;;;;;3.43;3.13;;;19.50;99.90;;;;;;6123038;23;20215;-91
2023/10/13 09:41:53;;;;;;;3.80;2.97;;;19.50;99.90;;;;;;6135865;23;20724;-92
2023/10/13 09:44:21;;;;;;;4.73;2.30;;;19.50;99.90;;;;;;6125134;23;20342;-93
2023/10/13 09:46:49;;;;;;;5.00;3.43;;;19.50;99.90;;;;;;6123309;23;20648;-90
2023/10/13 09:49:33;;;;;;;7.03;3.13;;;19.50;99.90;;;;;;6124088;23;20282;-91
2023/10/13 09:52:01;;;;;;;9.53;4.13;;;19.50;99.90;;;;;;6148800;23;20175;-92
2023/10/13 09:54:36;;;;;;;6.20;2.80;;;19.50;99.90;;;;;;6147530;23;20166;-92
2023/10/13 09:57:13;;;;;;;6.77;3.27;;;19.50;99.90;;;;;;6148530;23;20199;-91
2023/10/13 09:59:56;;;;;;;4.87;2.63;;;19.50;99.90;;;;;;6147545;23;20249;-92
2023/10/13 10:02:25;;;;;;;2.80;2.57;;;19.50;99.90;;;;;;6147945;23;20221;-89
2023/10/13 10:04:53;;;;;;;5.50;2.77;;;19.50;99.90;;;;;;6124321;23;20644;-93
2023/10/13 10:07:28;;;;;;;3.30;2.63;;;19.70;99.90;;;;;;6148453;23;20203;-89
2023/10/13 10:10:01;;;;;;;6.50;2.83;;;19.80;99.90;;;;;;6148503;23;20159;-89
2023/10/13 10:13:07;;;;;;;2.47;2.17;;;19.80;99.90;;;;;;6149712;23;20638;-89
2023/10/13 10:15:43;;;;;;;6.03;2.57;;;19.80;99.90;;;;;;6173290;23;20175;-89
2023/10/13 10:18:25;;;;;;;3.70;2.43;;;20.10;99.90;;;;;;6125606;23;20179;-90
2023/10/13 10:20:52;;;;;;;6.37;2.60;;;20.40;99.90;;;;;;6146873;23;20222;-92
2023/10/13 10:23:25;;;;;;;2.90;2.17;;;20.70;99.90;;;;;;6147320;23;20191;-92
2023/10/13 10:25:51;;;;;;;3.33;3.03;;;20.80;99.90;;;;;;6147966;23;20452;-92
2023/10/13 10:28:19;;;;;;;5.53;2.37;;;20.80;99.90;;;;;;6123624;23;20199;-94
2023/10/13 10:30:45;;;;;;;8.80;2.80;;;20.60;99.90;;;;;;6122714;23;20246;-89
2023/10/13 10:33:18;;;;;;;3.57;2.30;;;20.60;99.90;;;;;;6123952;23;20622;-92
2023/10/13 10:35:59;;;;;;;3.00;2.03;;;20.50;99.90;;;;;;6146835;23;20195;-92
2023/10/13 10:38:34;;;;;;;6.50;2.60;;;20.50;99.90;;;;;;6146138;23;20202;-92
2023/10/13 10:41:06;;;;;;;5.53;2.63;;;20.60;99.90;;;;;;6145411;23;20213;-90
2023/10/13 10:43:46;;;;;;;5.30;2.90;;;20.50;99.90;;;;;;6147745;23;20195;-92
2023/10/13 10:46:25;;;;;;;7.17;2.80;;;20.40;99.90;;;;;;6148275;23;20211;-91
2023/10/13 10:49:00;;;;;;;5.30;2.20;;;20.40;99.90;;;;;;6146347;23;20163;-91
2023/10/13 10:51:33;;;;;;;9.00;2.73;;;20.40;99.90;;;;;;6146685;23;20635;-91
2023/10/13 10:54:11;;;;;;;3.30;2.40;;;20.20;99.90;;;;;;6145689;23;20644;-87
2023/10/13 10:56:37;;;;;;;8.87;2.97;;;20.20;99.90;;;;;;6146580;23;20530;-91
2023/10/13 10:59:19;;;;;;;12.20;2.53;;;20.20;99.90;;;;;;6144643;23;20199;-91
2023/10/13 11:01:58;;;;;;;3.27;2.97;;;20.20;99.90;;;;;;6145432;23;20551;-90
2023/10/13 11:04:33;;;;;;;7.20;2.90;;;20.10;99.90;;;;;;6135174;23;20290;-89
2023/10/13 11:06:59;;;;;;;5.53;1.60;;;20.20;99.90;;;;;;6124470;23;20155;-91
2023/10/13 11:11:57;;;;;;;7.87;3.30;;;20.40;99.90;;;;;;6148083;23;20543;-90
2023/10/13 11:14:29;;;;;;;5.40;3.37;;;20.50;99.90;;;;;;6122206;23;20223;-91
2023/10/13 11:17:00;;;;;;;3.97;2.10;;;20.50;99.90;;;;;;6146461;23;20772;-88
2023/10/13 11:19:35;;;;;;;7.33;2.70;;;20.40;99.90;;;;;;6122891;23;20219;-90
2023/10/13 11:22:11;;;;;;;5.13;2.47;;;20.30;99.90;;;;;;6146841;23;20222;-90
2023/10/13 11:24:42;;;;;;;3.83;2.67;;;20.30;99.90;;;;;;6148699;23;20707;-90
2023/10/13 11:27:21;;;;;;;4.40;2.33;;;20.30;99.90;;;;;;6148253;23;20187;-90
2023/10/13 11:29:52;;;;;;;6.93;3.90;;;20.30;99.90;;;;;;6146534;23;20565;-91
2023/10/13 11:32:20;;;;;;;3.87;2.20;;;20.40;99.90;;;;;;6121694;23;20265;-89
2023/10/13 11:34:51;;;;;;;6.87;3.33;;;20.40;99.90;;;;;;6145680;23;20187;-91
2023/10/13 11:37:37;;;;;;;10.63;2.77;;;20.30;99.90;;;;;;6123735;23;20660;-90
2023/10/13 11:40:12;;;;;;;5.17;2.83;;;20.20;99.90;;;;;;6125240;23;20261;-91
2023/10/13 11:42:43;;;;;;;4.17;2.57;;;20.10;99.90;;;;;;6146219;23;20484;-92
2023/10/13 11:45:30;;;;;;;4.67;3.77;;;20.00;99.90;;;;;;6123263;23;20258;-92
2023/10/13 11:48:00;;;;;;;12.17;2.80;;;19.80;99.90;;;;;;6126590;23;20547;-91
2023/10/13 11:50:33;;;;;;;4.97;2.97;;;19.70;99.90;;;;;;6144590;23;20285;-91
2023/10/13 11:53:00;;;;;;;3.17;2.37;;;19.50;99.90;;;;;;6146534;23;20208;-91
2023/10/13 11:55:26;;;;;;;5.80;2.97;;;19.30;99.90;;;;;;6122100;23;20210;-90
2023/10/13 11:57:52;;;;;;;4.40;2.03;;;19.20;99.90;;;;;;6121727;23;20164;-91
2023/10/13 12:06:06;;;;;;;7.17;3.10;;;19.10;99.90;;;;;;6132618;23;20203;-92
2023/10/13 12:08:33;;;;;;;12.37;3.03;;;19.10;99.90;;;;;;6147124;23;20275;-90
2023/10/13 12:11:30;;;;;;;5.60;2.07;;;19.10;99.90;;;;;;6135224;23;20199;-91
2023/10/13 12:13:47;;;;;;;8.87;3.23;;;19.00;99.90;;;;;;6150691;23;20649;-92
2023/10/13 12:16:13;;;;;;;12.10;2.90;;;19.00;99.90;;;;;;6146190;23;20202;-92
2023/10/13 12:18:53;;;;;;;6.10;3.73;;;19.00;99.90;;;;;;6122077;23;20159;-92
2023/10/13 12:21:21;;;;;;;4.73;2.83;;;19.00;99.90;;;;;;6122336;23;20269;-93
2023/10/13 12:23:47;;;;;;;3.60;2.20;;;18.90;99.90;;;;;;6147131;23;20648;-93
2023/10/13 12:26:32;;;;;;;5.30;2.83;;;18.90;99.90;;;;;;6137755;23;20199;-93
2023/10/13 12:29:06;;;;;;;1.73;1.63;;;18.90;99.90;;;;;;6137653;23;20198;-89
2023/10/13 12:31:39;;;;;;;9.87;2.03;;;18.90;99.90;;;;;;6123535;23;20230;-91
2023/10/13 12:34:19;;;;;;;5.33;3.70;;;18.80;99.90;;;;;;6135400;23;21894;-92
2023/10/13 12:36:53;;;;;;;7.77;3.87;;;18.80;99.90;;;;;;6149899;23;20152;-92
2023/10/13 12:50:34;;;;;;;5.87;2.97;;;18.60;99.90;;;;;;6148686;23;20961;-93
2023/10/13 12:53:00;;;;;;;6.90;3.50;;;18.60;99.90;;;;;;6127681;23;20213;-92
2023/10/13 12:55:26;;;;;;;5.23;3.43;;;18.60;99.90;;;;;;6124487;23;20274;-92
2023/10/13 12:57:51;;;;;;;7.70;2.80;;;18.60;99.90;;;;;;6124174;23;20190;-92
2023/10/13 13:00:22;;;;;;;6.10;3.30;;;18.50;99.90;;;;;;6124757;23;20210;-93
2023/10/13 13:02:51;;;;;;;9.53;3.00;;;18.50;99.90;;;;;;6125717;23;20716;-88
2023/10/13 13:05:21;;;;;;;6.00;4.03;;;18.50;99.90;;;;;;6124997;23;20212;-91
2023/10/13 13:07:52;;;;;;;5.90;2.97;;;18.60;99.90;;;;;;6148699;23;20195;-91
2023/10/13 13:10:18;;;;;;;4.20;2.57;;;18.70;99.90;;;;;;6147345;23;20199;-87
2023/10/13 13:12:44;;;;;;;4.83;3.33;;;18.70;99.90;;;;;;6149232;23;20261;-91
2023/10/13 13:15:11;;;;;;;5.33;3.60;;;18.70;99.90;;;;;;6150121;23;20156;-91
2023/10/13 13:17:38;;;;;;;10.40;2.80;;;18.80;99.90;;;;;;6124632;23;20206;-92
2023/10/13 13:20:25;;;;;;;7.93;4.43;;;18.90;99.90;;;;;;6123401;23;20199;-89
2023/10/13 13:22:53;;;;;;;5.43;2.97;;;18.90;99.90;;;;;;6127844;23;20711;-90
2023/10/13 13:25:25;;;;;;;9.50;2.93;;;18.90;99.90;;;;;;6124276;23;20200;-91
2023/10/13 13:27:51;;;;;;;24.57;3.67;;;19.00;99.90;;;;;;6125594;23;20155;-89
2023/10/13 13:30:19;;;;;;;7.83;4.73;;;19.00;99.90;;;;;;6149155;23;20156;-91
2023/10/13 13:32:46;;;;;;;8.43;4.87;;;19.00;99.90;;;;;;6114158;23;20655;-90
2023/10/13 13:35:14;;;;;;;5.13;3.57;;;19.10;99.90;;;;;;6124057;23;20277;-91
2023/10/13 13:37:49;;;;;;;4.87;3.07;;;19.00;99.90;;;;;;6147825;23;20509;-92
2023/10/13 13:40:15;;;;;;;12.13;3.63;;;19.10;99.90;;;;;;6122219;23;20242;-89
2023/10/13 13:42:45;;;;;;;11.00;2.27;;;19.10;99.90;;;;;;6124206;23;20245;-89
2023/10/13 13:45:41;;;;;;;10.13;3.60;;;19.10;99.90;;;;;;6148266;23;20222;-89
2023/10/13 13:48:07;;;;;;;10.87;3.80;;;19.00;99.90;;;;;;6149112;23;20219;-88
2023/10/13 13:50:40;;;;;;;5.97;2.87;;;19.10;99.90;;;;;;6148884;23;20176;-92
2023/10/13 13:53:09;;;;;;;9.83;4.67;;;19.20;99.90;;;;;;6148406;23;20254;-89
2023/10/13 13:55:35;;;;;;;4.83;3.83;;;19.30;99.90;;;;;;6148408;23;20226;-90
2023/10/13 13:58:04;;;;;;;7.37;3.07;;;19.30;99.90;;;;;;6148939;23;20195;-91
2023/10/13 14:00:46;;;;;;;10.77;3.87;;;19.40;99.90;;;;;;6124888;23;20200;-89
2023/10/13 14:03:30;;;;;;;13.13;3.80;;;19.40;99.90;;;;;;6127983;23;20648;-89
2023/10/13 14:06:00;;;;;;;25.60;3.50;;;19.50;99.90;;;;;;6148047;23;20258;-91
2023/10/13 14:08:27;;;;;;;14.47;2.60;;;19.60;99.90;;;;;;6148666;23;20163;-91
2023/10/13 14:13:48;;;;;;;9.27;3.83;;;19.70;99.90;;;;;;6148372;23;20203;-89
2023/10/13 14:16:18;;;;;;;15.77;3.13;;;19.90;99.90;;;;;;6148254;23;20199;-88
2023/10/13 14:18:45;;;;;;;9.10;3.40;;;20.00;99.90;;;;;;6124390;23;20217;-89
2023/10/13 14:21:16;;;;;;;3.90;3.53;;;20.10;99.90;;;;;;6147741;23;20202;-91
2023/10/13 14:23:49;;;;;;;13.80;4.07;;;20.10;99.90;;;;;;6147988;23;20225;-89
2023/10/13 14:26:21;;;;;;;9.70;4.93;;;20.10;99.90;;;;;;6149207;23;20529;-89
2023/10/13 14:29:01;;;;;;;7.90;3.70;;;20.10;99.90;;;;;;6147994;23;20306;-91
2023/10/13 14:31:36;;;;;;;4.77;4.10;;;20.10;99.90;;;;;;6147799;23;20253;-91
2023/10/13 14:34:02;;;;;;;19.03;2.70;;;20.10;99.90;;;;;;6148734;23;20202;-91
2023/10/13 14:36:34;;;;;;;7.10;3.70;;;20.10;99.90;;;;;;6148244;23;20234;-90
2023/10/13 14:39:01;;;;;;;8.83;3.87;;;20.10;99.90;;;;;;6124876;23;20688;-87
2023/10/13 14:41:27;;;;;;;9.40;3.10;;;20.00;99.90;;;;;;6123845;23;20160;-89
2023/10/13 14:44:04;;;;;;;6.77;3.33;;;20.10;99.90;;;;;;6123437;23;20210;-91
2023/10/13 14:46:31;;;;;;;8.67;3.90;;;20.10;99.90;;;;;;6125674;23;20207;-90
2023/10/13 14:48:57;;;;;;;10.80;4.00;;;20.10;99.90;;;;;;6148182;23;20302;-90
2023/10/13 14:51:25;;;;;;;11.93;4.13;;;20.10;99.90;;;;;;6147867;23;20200;-90
2023/10/13 14:53:55;;;;;;;3.77;3.23;;;20.10;99.90;;;;;;6125175;23;20159;-90
2023/10/13 14:56:26;;;;;;;5.53;2.63;;;20.10;99.90;;;;;;6150002;23;20619;-90
2023/10/13 14:58:55;;;;;;;5.43;2.77;;;20.10;99.90;;;;;;6148209;23;20540;-90
2023/10/13 15:01:22;;;;;;;7.83;3.70;;;20.10;99.90;;;;;;6146747;23;20207;-90
2023/10/13 15:03:50;;;;;;;9.73;3.27;;;20.10;99.90;;;;;;6126023;23;20199;-94
2023/10/13 15:06:24;;;;;;;8.27;2.60;;;20.10;99.90;;;;;;6148278;23;20678;-89
2023/10/13 15:08:53;;;;;;;15.73;3.50;;;20.10;99.90;;;;;;6147596;23;20234;-89
2023/10/13 15:11:19;;;;;;;7.20;4.17;;;20.20;99.90;;;;;;6147735;23;20230;-90
2023/10/13 15:13:50;;;;;;;18.67;3.63;;;20.10;99.90;;;;;;6122740;23;20426;-92
2023/10/13 15:16:26;;;;;;;8.93;3.37;;;20.10;99.90;;;;;;6149246;23;20199;-91
2023/10/13 15:18:52;;;;;;;9.43;4.03;;;20.10;99.90;;;;;;6122196;23;20210;-92
2023/10/13 15:21:26;;;;;;;7.73;3.33;;;20.10;99.90;;;;;;6147722;23;20222;-92
2023/10/13 15:23:53;;;;;;;11.93;3.00;;;20.00;99.90;;;;;;6148100;23;20151;-90
2023/10/13 15:26:21;;;;;;;10.37;3.53;;;20.00;99.90;;;;;;6124333;23;20166;-90
2023/10/13 15:28:55;;;;;;;7.97;3.97;;;20.00;99.90;;;;;;6148210;23;20203;-92
2023/10/13 15:34:06;;;;;;;5.80;3.87;;;19.90;99.90;;;;;;6149986;23;20205;-91
2023/10/13 15:36:35;;;;;;;5.33;3.70;;;19.90;99.90;;;;;;6125095;23;20227;-90
2023/10/13 15:39:07;;;;;;;12.00;4.07;;;20.00;99.90;;;;;;6146676;23;20246;-87
2023/10/13 15:41:33;;;;;;;8.97;3.37;;;20.00;99.90;;;;;;6147787;23;20523;-90
2023/10/13 15:43:59;;;;;;;5.53;3.67;;;19.90;99.90;;;;;;6123945;23;20623;-91
2023/10/13 15:46:25;;;;;;;9.30;4.30;;;19.90;99.90;;;;;;6123706;23;20210;-90
2023/10/13 15:48:51;;;;;;;13.50;3.77;;;19.90;99.90;;;;;;6122753;23;20265;-91
2023/10/13 15:51:18;;;;;;;10.40;4.03;;;19.90;99.90;;;;;;6147460;23;20666;-91
2023/10/13 15:53:44;;;;;;;10.10;4.47;;;19.90;99.90;;;;;;6148286;23;20156;-88
2023/10/13 15:56:11;;;;;;;10.67;3.13;;;19.90;99.90;;;;;;6124200;23;20232;-89
2023/10/13 15:58:47;;;;;;;6.57;3.43;;;19.80;99.90;;;;;;6149195;23;20307;-88
2023/10/13 16:01:14;;;;;;;5.43;2.93;;;19.90;99.90;;;;;;6138260;23;20264;-89
2023/10/13 16:03:43;;;;;;;14.00;3.63;;;19.80;99.90;;;;;;6149232;23;20200;-89
2023/10/13 16:06:13;;;;;;;9.57;2.83;;;19.90;99.90;;;;;;6148606;23;20254;-89